Time;durP1;ratioP1;P1;durP2;ratioP2;P2;SDS_P1;SDS_P2;PMS_P1;PMS_P2;Temp;Humidity;BMP_temperature;BMP_pressure;BME280_temperature;BME280_humidity;BME280_pressure;Samples;Min_cycle;Max_cycle;Signal;HPM_P1;HPM_P2
2022/04/13 00:00:13;;;;;;;3.23;2.20;;;;;;;;;;4954181;28;20424;-72
2022/04/13 00:02:40;;;;;;;5.90;2.40;;;;;;;;;;4954000;28;20468;-74
2022/04/13 00:05:06;;;;;;;5.63;2.10;;;;;;;;;;4971846;28;20513;-73
2022/04/13 00:07:32;;;;;;;4.63;1.93;;;;;;;;;;4957976;28;20503;-73
2022/04/13 00:09:58;;;;;;;5.13;2.30;;;;;;;;;;4972639;28;20519;-74
2022/04/13 00:12:24;;;;;;;3.57;2.20;;;;;;;;;;4957283;28;20515;-73
2022/04/13 00:14:50;;;;;;;2.93;2.50;;;;;;;;;;4957580;28;20426;-73
2022/04/13 00:17:16;;;;;;;5.93;2.50;;;;;;;;;;4957728;28;20948;-74
2022/04/13 00:19:42;;;;;;;4.30;2.53;;;;;;;;;;4957583;28;20428;-75
2022/04/13 00:22:08;;;;;;;7.90;2.63;;;;;;;;;;4971907;28;21063;-74
2022/04/13 00:24:34;;;;;;;4.43;2.27;;;;;;;;;;4957445;28;20409;-72
2022/04/13 00:27:00;;;;;;;6.20;3.23;;;;;;;;;;4957379;28;20423;-72
2022/04/13 00:29:30;;;;;;;7.27;2.93;;;;;;;;;;4957369;28;20395;-74
2022/04/13 00:31:57;;;;;;;5.40;2.67;;;;;;;;;;4956949;28;20433;-73
2022/04/13 00:34:23;;;;;;;4.67;2.70;;;;;;;;;;4957282;28;20478;-72
2022/04/13 00:36:49;;;;;;;4.33;2.43;;;;;;;;;;4972115;28;20504;-73
2022/04/13 00:39:15;;;;;;;3.20;2.50;;;;;;;;;;4957125;28;20438;-72
2022/04/13 00:41:41;;;;;;;5.67;2.40;;;;;;;;;;4956873;28;20433;-72
2022/04/13 00:44:08;;;;;;;6.40;2.73;;;;;;;;;;4971952;28;20476;-73
2022/04/13 00:46:34;;;;;;;4.40;2.70;;;;;;;;;;4957291;28;20413;-73
2022/04/13 00:49:01;;;;;;;5.30;2.53;;;;;;;;;;4957310;28;20851;-72
2022/04/13 00:51:27;;;;;;;5.17;2.40;;;;;;;;;;4956782;28;20756;-73
2022/04/13 00:53:54;;;;;;;4.90;2.60;;;;;;;;;;4957101;28;20436;-74
2022/04/13 00:56:23;;;;;;;6.93;3.00;;;;;;;;;;4956894;28;20445;-75
2022/04/13 00:58:52;;;;;;;3.37;2.77;;;;;;;;;;4956884;28;20420;-74
2022/04/13 01:01:18;;;;;;;6.50;3.10;;;;;;;;;;4956273;28;20441;-75
2022/04/13 01:03:44;;;;;;;5.27;2.70;;;;;;;;;;4956814;28;20511;-72
2022/04/13 01:06:11;;;;;;;5.43;2.50;;;;;;;;;;4971651;28;20787;-73
2022/04/13 01:08:41;;;;;;;7.73;3.30;;;;;;;;;;4956604;28;20878;-73
2022/04/13 01:11:07;;;;;;;4.10;2.37;;;;;;;;;;4956348;28;20862;-73
2022/04/13 01:13:33;;;;;;;5.13;2.70;;;;;;;;;;4956743;28;20421;-72
2022/04/13 01:15:59;;;;;;;5.53;2.53;;;;;;;;;;4955934;28;20523;-73
2022/04/13 01:18:25;;;;;;;6.90;2.73;;;;;;;;;;4956660;28;20428;-74
2022/04/13 01:20:52;;;;;;;6.77;3.10;;;;;;;;;;4956056;28;20396;-74
2022/04/13 01:23:19;;;;;;;3.97;2.47;;;;;;;;;;4971214;28;20485;-75
2022/04/13 01:25:49;;;;;;;6.67;2.70;;;;;;;;;;4956421;28;20406;-74
2022/04/13 01:28:15;;;;;;;4.17;2.57;;;;;;;;;;4956393;28;20386;-73
2022/04/13 01:30:41;;;;;;;3.37;2.17;;;;;;;;;;4955866;28;20442;-74
2022/04/13 01:33:07;;;;;;;11.00;3.03;;;;;;;;;;4956062;28;20498;-72
2022/04/13 01:35:33;;;;;;;10.10;3.10;;;;;;;;;;4955966;28;20489;-74
2022/04/13 01:37:59;;;;;;;6.13;2.57;;;;;;;;;;4956209;28;20409;-74
2022/04/13 01:40:25;;;;;;;4.60;3.00;;;;;;;;;;4955829;28;20413;-73
2022/04/13 01:42:51;;;;;;;3.53;1.90;;;;;;;;;;4970886;28;20476;-74
2022/04/13 01:45:20;;;;;;;7.50;2.50;;;;;;;;;;4956176;28;20830;-74
2022/04/13 01:47:47;;;;;;;4.97;3.63;;;;;;;;;;4956035;28;20409;-72
2022/04/13 01:50:14;;;;;;;5.47;2.47;;;;;;;;;;4955644;28;20450;-75
2022/04/13 01:52:40;;;;;;;4.20;3.00;;;;;;;;;;4955807;28;20446;-74
2022/04/13 01:55:06;;;;;;;4.30;2.50;;;;;;;;;;4955859;28;20415;-74
2022/04/13 01:57:32;;;;;;;4.97;2.23;;;;;;;;;;4955684;28;20471;-73
2022/04/13 01:59:58;;;;;;;4.97;2.30;;;;;;;;;;4956106;28;20507;-74
2022/04/13 02:02:24;;;;;;;4.70;3.07;;;;;;;;;;4955365;28;20548;-74
2022/04/13 02:04:50;;;;;;;5.27;3.47;;;;;;;;;;4955872;28;20453;-71
2022/04/13 02:07:16;;;;;;;5.93;3.10;;;;;;;;;;4955798;28;20451;-73
2022/04/13 02:09:42;;;;;;;9.57;3.50;;;;;;;;;;4955601;28;21033;-74
2022/04/13 02:12:08;;;;;;;11.60;3.27;;;;;;;;;;4955229;28;20814;-73
2022/04/13 02:14:34;;;;;;;7.70;2.67;;;;;;;;;;4955577;28;20420;-75
2022/04/13 02:17:00;;;;;;;10.37;3.07;;;;;;;;;;4955616;28;20413;-71
2022/04/13 02:19:26;;;;;;;4.47;2.50;;;;;;;;;;4955527;28;20423;-71
2022/04/13 02:21:52;;;;;;;6.27;3.33;;;;;;;;;;4954917;28;20462;-72
2022/04/13 02:24:18;;;;;;;4.43;2.90;;;;;;;;;;4955428;28;20838;-75
2022/04/13 02:26:44;;;;;;;3.90;2.90;;;;;;;;;;4955512;28;20399;-75
2022/04/13 02:29:10;;;;;;;4.23;2.97;;;;;;;;;;4955351;28;20428;-73
2022/04/13 02:31:36;;;;;;;6.80;2.80;;;;;;;;;;4954792;28;20449;-71
2022/04/13 02:34:04;;;;;;;4.37;2.40;;;;;;;;;;4955148;28;20428;-71
2022/04/13 02:36:31;;;;;;;3.67;2.60;;;;;;;;;;4955299;28;20424;-73
2022/04/13 02:38:57;;;;;;;3.20;2.00;;;;;;;;;;4955295;28;20427;-73
2022/04/13 02:41:23;;;;;;;3.00;2.63;;;;;;;;;;4954755;28;20449;-73
2022/04/13 02:43:49;;;;;;;8.27;2.43;;;;;;;;;;4955032;28;20809;-74
2022/04/13 02:46:15;;;;;;;3.33;1.93;;;;;;;;;;4955004;28;20481;-74
2022/04/13 02:48:41;;;;;;;5.43;2.30;;;;;;;;;;4969945;28;20465;-73
2022/04/13 02:51:07;;;;;;;3.57;2.10;;;;;;;;;;4954914;28;20414;-73
2022/04/13 02:53:33;;;;;;;5.80;2.80;;;;;;;;;;4955433;28;20420;-75
2022/04/13 02:55:59;;;;;;;5.30;2.47;;;;;;;;;;4954784;28;20441;-71
2022/04/13 02:58:25;;;;;;;5.43;2.83;;;;;;;;;;4955042;28;20816;-74
2022/04/13 03:00:51;;;;;;;3.40;2.00;;;;;;;;;;4954661;28;20907;-72
2022/04/13 03:03:17;;;;;;;4.00;2.40;;;;;;;;;;4955011;28;20494;-72
2022/04/13 03:05:44;;;;;;;6.57;3.17;;;;;;;;;;4954903;28;20480;-73
2022/04/13 03:08:10;;;;;;;5.83;2.57;;;;;;;;;;4954701;28;20835;-74
2022/04/13 03:10:36;;;;;;;7.60;2.50;;;;;;;;;;4954601;28;20456;-73
2022/04/13 03:13:03;;;;;;;4.13;2.77;;;;;;;;;;4954875;28;20434;-73
2022/04/13 03:15:29;;;;;;;3.20;2.23;;;;;;;;;;4954890;28;20423;-73
2022/04/13 03:17:55;;;;;;;3.90;2.53;;;;;;;;;;4955075;28;20410;-75
2022/04/13 03:20:21;;;;;;;4.23;2.33;;;;;;;;;;4954489;28;20424;-75
2022/04/13 03:22:50;;;;;;;6.40;3.27;;;;;;;;;;4954873;28;20908;-75
2022/04/13 03:25:17;;;;;;;4.20;2.43;;;;;;;;;;4954853;28;20420;-74
2022/04/13 03:27:43;;;;;;;4.87;2.67;;;;;;;;;;4954732;29;20930;-74
2022/04/13 03:30:09;;;;;;;6.73;2.40;;;;;;;;;;4954659;28;20414;-75
2022/04/13 03:32:36;;;;;;;3.63;2.40;;;;;;;;;;4954494;28;20579;-73
2022/04/13 03:35:02;;;;;;;2.90;2.20;;;;;;;;;;4954729;28;20421;-72
2022/04/13 03:37:28;;;;;;;10.37;3.43;;;;;;;;;;4954668;28;20423;-74
2022/04/13 03:39:54;;;;;;;6.13;3.10;;;;;;;;;;4957438;28;20533;-73
2022/04/13 03:42:20;;;;;;;8.10;2.77;;;;;;;;;;4957781;28;20475;-73
2022/04/13 03:44:46;;;;;;;6.90;2.80;;;;;;;;;;4958195;28;20420;-73
2022/04/13 03:47:11;;;;;;;5.57;2.90;;;;;;;;;;4958355;28;20878;-73
2022/04/13 03:49:37;;;;;;;5.43;2.47;;;;;;;;;;4958296;28;20479;-74
2022/04/13 03:52:04;;;;;;;7.00;3.30;;;;;;;;;;4957859;28;20924;-73
2022/04/13 03:54:30;;;;;;;7.70;2.47;;;;;;;;;;4957957;28;20405;-73
2022/04/13 03:56:56;;;;;;;7.53;2.60;;;;;;;;;;4958106;28;20478;-73
2022/04/13 03:59:22;;;;;;;6.67;2.90;;;;;;;;;;4972799;28;21042;-73
2022/04/13 04:01:48;;;;;;;6.10;2.53;;;;;;;;;;4957724;28;20996;-74
2022/04/13 04:04:14;;;;;;;3.23;2.33;;;;;;;;;;4972677;28;20467;-74
2022/04/13 04:06:40;;;;;;;5.90;2.63;;;;;;;;;;4958033;28;20487;-72
2022/04/13 04:09:06;;;;;;;5.80;2.40;;;;;;;;;;4958051;28;20419;-73
2022/04/13 04:11:32;;;;;;;3.20;2.57;;;;;;;;;;4957364;28;20956;-74
2022/04/13 04:13:58;;;;;;;9.60;3.40;;;;;;;;;;4957750;28;20551;-72
2022/04/13 04:16:24;;;;;;;7.40;2.90;;;;;;;;;;4957801;28;20884;-75
2022/04/13 04:18:50;;;;;;;5.60;2.73;;;;;;;;;;4957552;28;20431;-74
2022/04/13 04:21:16;;;;;;;3.40;2.80;;;;;;;;;;4957300;28;20443;-72
2022/04/13 04:23:42;;;;;;;3.43;2.27;;;;;;;;;;4957462;28;20468;-73
2022/04/13 04:26:08;;;;;;;7.57;3.00;;;;;;;;;;4972247;28;20915;-74
2022/04/13 04:28:34;;;;;;;4.40;2.70;;;;;;;;;;4972161;28;20782;-71
2022/04/13 04:31:01;;;;;;;7.73;2.53;;;;;;;;;;4956881;28;20423;-74
2022/04/13 04:33:27;;;;;;;3.53;2.50;;;;;;;;;;4972251;28;20419;-72
2022/04/13 04:35:53;;;;;;;4.30;2.50;;;;;;;;;;4972193;28;20511;-74
2022/04/13 04:38:20;;;;;;;5.93;3.07;;;;;;;;;;4972082;28;20519;-74
2022/04/13 04:40:46;;;;;;;6.80;2.50;;;;;;;;;;4971628;28;20847;-73
2022/04/13 04:43:12;;;;;;;6.03;3.10;;;;;;;;;;4957070;28;20467;-72
2022/04/13 04:45:38;;;;;;;8.30;3.33;;;;;;;;;;4957208;28;20869;-73
2022/04/13 04:48:04;;;;;;;5.20;2.80;;;;;;;;;;4957098;28;20417;-73
2022/04/13 04:50:31;;;;;;;4.30;2.27;;;;;;;;;;4955438;28;20415;-74
2022/04/13 04:52:57;;;;;;;7.83;3.03;;;;;;;;;;4956821;28;20447;-75
2022/04/13 04:55:23;;;;;;;7.03;3.20;;;;;;;;;;4956819;28;20438;-73
2022/04/13 04:57:50;;;;;;;7.20;2.97;;;;;;;;;;4957018;28;20447;-73
2022/04/13 05:00:20;;;;;;;7.53;3.33;;;;;;;;;;4956616;28;20494;-74
2022/04/13 05:02:48;;;;;;;3.50;2.80;;;;;;;;;;4956956;28;20526;-72
2022/04/13 05:05:14;;;;;;;5.33;3.40;;;;;;;;;;4971814;28;20435;-75
2022/04/13 05:07:40;;;;;;;9.47;2.70;;;;;;;;;;4956957;28;20915;-72
2022/04/13 05:10:07;;;;;;;5.53;2.97;;;;;;;;;;4956757;28;20420;-74
2022/04/13 05:12:41;;;;;;;5.00;2.70;;;;;;;;;;4956452;28;20507;-73
2022/04/13 05:15:07;;;;;;;5.53;2.53;;;;;;;;;;4956543;28;20425;-74
2022/04/13 05:17:33;;;;;;;6.67;2.80;;;;;;;;;;4956596;28;20413;-73
2022/04/13 05:19:59;;;;;;;5.63;2.47;;;;;;;;;;4956609;28;20409;-72
2022/04/13 05:22:25;;;;;;;4.97;3.10;;;;;;;;;;4956024;28;20478;-73
2022/04/13 05:24:51;;;;;;;8.70;3.50;;;;;;;;;;4971238;28;20512;-74
2022/04/13 05:27:17;;;;;;;6.80;2.83;;;;;;;;;;4956319;28;20426;-73
2022/04/13 05:29:43;;;;;;;9.63;4.00;;;;;;;;;;4956362;28;20852;-73
2022/04/13 05:32:09;;;;;;;14.17;3.47;;;;;;;;;;4955914;28;20441;-73
2022/04/13 05:34:35;;;;;;;7.07;2.80;;;;;;;;;;4956303;28;20783;-74
2022/04/13 05:37:01;;;;;;;12.43;4.33;;;;;;;;;;4956154;28;20428;-74
2022/04/13 05:39:27;;;;;;;4.50;2.63;;;;;;;;;;4955994;28;20761;-72
2022/04/13 05:41:53;;;;;;;7.23;3.47;;;;;;;;;;4955628;28;20555;-72
2022/04/13 05:44:19;;;;;;;9.63;3.23;;;;;;;;;;4955948;28;20463;-75
2022/04/13 05:46:45;;;;;;;8.47;3.63;;;;;;;;;;4956070;28;20906;-75
2022/04/13 05:49:11;;;;;;;6.77;3.60;;;;;;;;;;4956220;28;20423;-75
2022/04/13 05:51:37;;;;;;;6.23;3.60;;;;;;;;;;4970294;28;20415;-74
2022/04/13 05:54:03;;;;;;;6.63;3.97;;;;;;;;;;4956082;28;20417;-75
2022/04/13 05:56:29;;;;;;;6.10;3.00;;;;;;;;;;4970737;28;20426;-73
2022/04/13 05:58:55;;;;;;;6.87;3.63;;;;;;;;;;4955896;28;20409;-73
2022/04/13 06:01:21;;;;;;;5.20;3.00;;;;;;;;;;4954984;28;20486;-74
2022/04/13 06:03:47;;;;;;;6.33;3.37;;;;;;;;;;4955575;28;20465;-73
2022/04/13 06:06:13;;;;;;;7.73;3.43;;;;;;;;;;4955738;28;20911;-72
2022/04/13 06:08:39;;;;;;;6.80;3.50;;;;;;;;;;4955561;28;20980;-74
2022/04/13 06:11:05;;;;;;;8.50;3.97;;;;;;;;;;4955301;28;20472;-73
2022/04/13 06:13:31;;;;;;;5.60;3.57;;;;;;;;;;4955692;28;20405;-73
2022/04/13 06:15:57;;;;;;;9.03;3.60;;;;;;;;;;4970634;28;20424;-74
2022/04/13 06:18:23;;;;;;;9.50;3.20;;;;;;;;;;4955784;28;20809;-73
2022/04/13 06:20:49;;;;;;;7.80;3.40;;;;;;;;;;4955060;28;20766;-73
2022/04/13 06:23:15;;;;;;;11.20;3.60;;;;;;;;;;4955254;28;20468;-73
2022/04/13 06:25:41;;;;;;;8.80;3.60;;;;;;;;;;4955411;28;20391;-72
2022/04/13 06:28:07;;;;;;;10.83;4.70;;;;;;;;;;4955433;28;20421;-73
2022/04/13 06:30:33;;;;;;;4.80;3.87;;;;;;;;;;4955116;28;20425;-72
2022/04/13 06:32:59;;;;;;;5.67;3.63;;;;;;;;;;4955176;28;20423;-74
2022/04/13 06:35:26;;;;;;;5.63;3.97;;;;;;;;;;4955196;28;20426;-74
2022/04/13 06:37:52;;;;;;;7.77;4.23;;;;;;;;;;4955158;28;20803;-73
2022/04/13 06:40:18;;;;;;;8.27;3.73;;;;;;;;;;4969741;28;20992;-75
2022/04/13 06:42:44;;;;;;;7.13;3.90;;;;;;;;;;4955066;28;20447;-74
2022/04/13 06:45:12;;;;;;;7.67;3.40;;;;;;;;;;4969991;28;20920;-74
2022/04/13 06:47:38;;;;;;;8.93;4.40;;;;;;;;;;4955174;28;20913;-73
2022/04/13 06:50:05;;;;;;;6.73;3.43;;;;;;;;;;4955116;28;20801;-74
2022/04/13 06:52:35;;;;;;;10.70;3.87;;;;;;;;;;4954855;28;20466;-74
2022/04/13 06:55:01;;;;;;;7.73;4.30;;;;;;;;;;4955030;28;20787;-74
2022/04/13 06:57:27;;;;;;;7.50;4.17;;;;;;;;;;4955016;28;20693;-74
2022/04/13 06:59:53;;;;;;;7.70;3.80;;;;;;;;;;4954893;28;20417;-74
2022/04/13 07:02:19;;;;;;;8.83;4.30;;;;;;;;;;4954859;28;20797;-74
2022/04/13 07:04:45;;;;;;;10.00;4.23;;;;;;;;;;4955175;28;20448;-74
2022/04/13 07:07:11;;;;;;;14.93;4.50;;;;;;;;;;4955067;28;20479;-75
2022/04/13 07:09:37;;;;;;;6.90;3.60;;;;;;;;;;4955141;28;20380;-74
2022/04/13 07:12:03;;;;;;;9.80;4.70;;;;;;;;;;4954341;28;20926;-72
2022/04/13 07:14:29;;;;;;;9.53;4.87;;;;;;;;;;4957377;28;20431;-74
2022/04/13 07:16:55;;;;;;;7.30;4.07;;;;;;;;;;4958852;28;20413;-73
2022/04/13 07:19:21;;;;;;;7.10;4.67;;;;;;;;;;4958591;28;20769;-75
2022/04/13 07:21:47;;;;;;;8.40;5.03;;;;;;;;;;4972967;28;20466;-74
2022/04/13 07:24:13;;;;;;;11.50;5.50;;;;;;;;;;4958336;28;20475;-72
2022/04/13 07:26:39;;;;;;;13.87;5.00;;;;;;;;;;4973844;28;20504;-72
2022/04/13 07:29:05;;;;;;;8.97;5.17;;;;;;;;;;4958629;28;20392;-71
2022/04/13 07:31:31;;;;;;;14.47;5.33;;;;;;;;;;4958082;28;20931;-74
2022/04/13 07:33:57;;;;;;;9.80;4.80;;;;;;;;;;4958343;28;20419;-74
2022/04/13 07:36:23;;;;;;;10.97;5.27;;;;;;;;;;4958208;28;20387;-75
2022/04/13 07:38:52;;;;;;;13.63;5.63;;;;;;;;;;4958310;28;20417;-75
2022/04/13 07:41:18;;;;;;;6.60;4.90;;;;;;;;;;4957917;28;20448;-72
2022/04/13 07:43:44;;;;;;;12.67;5.30;;;;;;;;;;4958281;28;20454;-74
2022/04/13 07:46:11;;;;;;;15.47;6.17;;;;;;;;;;4958086;28;20903;-73
2022/04/13 07:48:37;;;;;;;11.30;5.80;;;;;;;;;;4958121;28;20390;-74
2022/04/13 07:51:03;;;;;;;14.23;5.27;;;;;;;;;;4972647;28;20428;-73
2022/04/13 07:53:29;;;;;;;14.70;5.40;;;;;;;;;;4958388;28;20542;-74
2022/04/13 07:55:55;;;;;;;12.63;6.50;;;;;;;;;;4958074;28;20531;-74
2022/04/13 07:58:21;;;;;;;6.40;4.93;;;;;;;;;;4958267;28;20942;-71
2022/04/13 08:00:47;;;;;;;7.13;5.10;;;;;;;;;;4957744;28;20420;-74
2022/04/13 08:03:13;;;;;;;13.20;6.53;;;;;;;;;;4972777;28;20474;-72
2022/04/13 08:05:40;;;;;;;11.47;5.30;;;;;;;;;;4958001;28;20952;-73
2022/04/13 08:08:06;;;;;;;9.80;5.50;;;;;;;;;;4957937;28;20470;-73
2022/04/13 08:10:32;;;;;;;8.03;5.80;;;;;;;;;;4972227;28;20396;-72
2022/04/13 08:12:58;;;;;;;13.43;5.77;;;;;;;;;;4957801;28;20416;-73
2022/04/13 08:15:24;;;;;;;9.23;5.60;;;;;;;;;;4957755;28;20458;-73
2022/04/13 08:17:50;;;;;;;10.37;6.50;;;;;;;;;;4957716;28;20487;-74
2022/04/13 08:20:17;;;;;;;13.73;6.37;;;;;;;;;;4957343;28;20392;-75
2022/04/13 08:22:43;;;;;;;11.03;5.90;;;;;;;;;;4957392;28;20459;-74
2022/04/13 08:25:10;;;;;;;9.23;5.10;;;;;;;;;;4957462;28;20391;-74
2022/04/13 08:27:36;;;;;;;9.30;5.80;;;;;;;;;;4972483;28;20446;-73
2022/04/13 08:30:02;;;;;;;8.87;5.57;;;;;;;;;;4972383;28;20392;-74
2022/04/13 08:32:28;;;;;;;11.13;4.67;;;;;;;;;;4956913;28;20429;-73
2022/04/13 08:34:54;;;;;;;10.07;5.27;;;;;;;;;;4972102;28;20392;-73
2022/04/13 08:37:20;;;;;;;6.83;5.40;;;;;;;;;;4957434;28;20427;-74
2022/04/13 08:39:46;;;;;;;9.77;5.00;;;;;;;;;;4957282;28;20425;-75
2022/04/13 08:42:13;;;;;;;8.53;4.90;;;;;;;;;;4956845;28;20444;-74
2022/04/13 08:44:48;;;;;;;8.93;5.07;;;;;;;;;;4957020;28;20413;-73
2022/04/13 08:47:18;;;;;;;9.47;4.67;;;;;;;;;;4957148;28;20417;-73
2022/04/13 08:49:45;;;;;;;15.43;5.07;;;;;;;;;;4957288;28;20781;-73
2022/04/13 08:52:14;;;;;;;8.50;4.83;;;;;;;;;;4956840;28;20429;-74
2022/04/13 08:55:00;;;;;;;11.70;5.00;;;;;;;;;;4956966;28;20417;-73
2022/04/13 08:57:28;;;;;;;10.40;4.50;;;;;;;;;;4959408;28;20451;-74
2022/04/13 09:00:08;;;;;;;10.10;5.77;;;;;;;;;;4956866;28;20409;-74
2022/04/13 09:02:50;;;;;;;9.97;4.40;;;;;;;;;;4956634;28;20468;-74
2022/04/13 09:05:21;;;;;;;11.30;5.07;;;;;;;;;;4956809;28;20412;-75
2022/04/13 09:07:50;;;;;;;9.67;5.23;;;;;;;;;;4956879;28;20608;-73
2022/04/13 09:10:20;;;;;;;9.93;4.97;;;;;;;;;;4956207;28;20405;-73
2022/04/13 09:12:47;;;;;;;10.60;4.80;;;;;;;;;;4956547;28;20781;-73
2022/04/13 09:15:14;;;;;;;7.90;4.57;;;;;;;;;;4956630;28;20421;-72
2022/04/13 09:17:41;;;;;;;12.33;4.67;;;;;;;;;;4956649;28;20413;-75
2022/04/13 09:20:07;;;;;;;6.80;4.93;;;;;;;;;;4956475;28;20413;-74
2022/04/13 09:22:34;;;;;;;7.17;4.30;;;;;;;;;;4970813;28;20503;-75
2022/04/13 09:25:01;;;;;;;9.47;3.50;;;;;;;;;;4956329;28;20479;-75
2022/04/13 09:27:28;;;;;;;12.97;4.20;;;;;;;;;;4971170;28;20452;-74
2022/04/13 09:29:54;;;;;;;6.30;3.70;;;;;;;;;;4971178;28;20425;-74
2022/04/13 09:32:20;;;;;;;10.83;5.00;;;;;;;;;;4955972;28;20472;-74
2022/04/13 09:34:46;;;;;;;9.73;4.47;;;;;;;;;;4956103;28;20420;-74
2022/04/13 09:37:12;;;;;;;8.27;4.60;;;;;;;;;;4955378;28;20409;-75
2022/04/13 09:39:38;;;;;;;9.40;4.10;;;;;;;;;;4970923;28;20568;-74
2022/04/13 09:42:04;;;;;;;9.53;4.10;;;;;;;;;;4955663;28;20848;-75
2022/04/13 09:44:32;;;;;;;8.07;4.50;;;;;;;;;;4955974;28;20827;-73
2022/04/13 09:47:08;;;;;;;11.63;4.60;;;;;;;;;;4955882;28;20390;-74
2022/04/13 09:49:34;;;;;;;11.53;5.40;;;;;;;;;;4955841;28;20415;-74
2022/04/13 09:52:00;;;;;;;9.20;4.60;;;;;;;;;;4955609;28;20421;-73
2022/04/13 09:54:27;;;;;;;12.50;5.87;;;;;;;;;;4955797;28;20405;-74
2022/04/13 09:56:53;;;;;;;7.37;5.50;;;;;;;;;;4956001;28;20413;-74
2022/04/13 09:59:32;;;;;;;12.17;5.90;;;;;;;;;;4955707;28;20488;-75
2022/04/13 10:01:59;;;;;;;9.60;5.00;;;;;;;;;;4955600;28;20460;-73
2022/04/13 10:04:25;;;;;;;8.90;5.37;;;;;;;;;;4970777;28;20485;-75
2022/04/13 10:06:51;;;;;;;10.33;5.20;;;;;;;;;;4970685;28;20431;-73
2022/04/13 10:09:17;;;;;;;14.00;5.50;;;;;;;;;;4955683;28;20424;-74
2022/04/13 10:11:59;;;;;;;6.17;4.30;;;;;;;;;;4955278;28;20445;-75
2022/04/13 10:14:25;;;;;;;14.37;4.93;;;;;;;;;;4955563;28;20417;-74
2022/04/13 10:16:56;;;;;;;11.20;4.47;;;;;;;;;;4955560;28;20412;-74
2022/04/13 10:19:22;;;;;;;7.40;4.90;;;;;;;;;;4955460;28;20429;-75
2022/04/13 10:21:51;;;;;;;9.40;4.33;;;;;;;;;;4955267;28;20473;-75
2022/04/13 10:24:17;;;;;;;9.93;5.40;;;;;;;;;;4970324;28;20539;-74
2022/04/13 10:26:59;;;;;;;6.83;4.50;;;;;;;;;;4970408;28;20428;-73
2022/04/13 10:29:27;;;;;;;8.83;4.80;;;;;;;;;;4970159;28;20472;-74
2022/04/13 10:32:02;;;;;;;9.20;4.90;;;;;;;;;;4954963;28;20429;-73
2022/04/13 10:34:32;;;;;;;13.20;5.97;;;;;;;;;;4955323;28;20778;-75
2022/04/13 10:36:58;;;;;;;10.23;5.03;;;;;;;;;;4955243;28;20417;-73
2022/04/13 10:39:24;;;;;;;8.63;4.47;;;;;;;;;;4969891;28;20417;-73
2022/04/13 10:41:50;;;;;;;9.80;4.83;;;;;;;;;;4954785;28;20872;-73
2022/04/13 10:44:23;;;;;;;10.80;3.93;;;;;;;;;;4969953;28;20531;-75
2022/04/13 10:46:51;;;;;;;7.30;4.90;;;;;;;;;;4970023;28;20480;-74
2022/04/13 10:49:21;;;;;;;7.67;4.40;;;;;;;;;;4955086;28;20416;-75
2022/04/13 10:51:48;;;;;;;6.83;4.80;;;;;;;;;;4954423;28;20917;-74
2022/04/13 10:54:15;;;;;;;10.10;5.43;;;;;;;;;;4955157;28;20803;-74
2022/04/13 10:56:42;;;;;;;8.93;4.87;;;;;;;;;;4954990;28;20436;-75
2022/04/13 10:59:16;;;;;;;6.60;4.40;;;;;;;;;;4955171;28;20413;-73
2022/04/13 11:01:49;;;;;;;12.70;4.80;;;;;;;;;;4954530;28;20447;-73
2022/04/13 11:04:17;;;;;;;8.00;4.07;;;;;;;;;;4955062;28;20460;-74
2022/04/13 11:06:43;;;;;;;8.17;4.70;;;;;;;;;;4955023;28;20413;-74
2022/04/13 11:09:29;;;;;;;4.63;3.50;;;;;;;;;;4954997;28;20480;-74
2022/04/13 11:11:56;;;;;;;26.60;4.97;;;;;;;;;;4954183;28;20479;-74
2022/04/13 11:14:23;;;;;;;6.80;3.30;;;;;;;;;;4955201;28;20846;-74
2022/04/13 11:16:53;;;;;;;6.73;3.93;;;;;;;;;;4955229;28;20472;-75
2022/04/13 11:19:20;;;;;;;10.60;4.07;;;;;;;;;;4954914;28;20420;-74
2022/04/13 11:21:52;;;;;;;7.17;4.43;;;;;;;;;;4954400;28;21005;-73
2022/04/13 11:24:37;;;;;;;6.70;3.93;;;;;;;;;;4954750;28;20473;-75
2022/04/13 11:27:03;;;;;;;10.67;4.40;;;;;;;;;;4969777;28;20787;-74
2022/04/13 11:29:52;;;;;;;8.57;4.60;;;;;;;;;;4954718;28;20582;-73
2022/04/13 11:32:24;;;;;;;7.60;3.77;;;;;;;;;;4954745;28;20448;-74
2022/04/13 11:34:50;;;;;;;6.87;3.80;;;;;;;;;;4954745;28;20925;-74
2022/04/13 11:37:17;;;;;;;7.40;4.13;;;;;;;;;;4954725;28;20394;-75
2022/04/13 11:39:44;;;;;;;6.77;4.00;;;;;;;;;;4954710;28;20413;-74
2022/04/13 11:42:25;;;;;;;6.83;3.30;;;;;;;;;;4954221;28;20456;-74
2022/04/13 11:44:53;;;;;;;10.10;3.10;;;;;;;;;;4954715;28;20427;-73
2022/04/13 11:47:19;;;;;;;7.60;3.90;;;;;;;;;;4954752;28;20420;-74
2022/04/13 11:50:01;;;;;;;9.40;3.50;;;;;;;;;;4954739;28;20464;-72
2022/04/13 11:52:48;;;;;;;5.20;2.87;;;;;;;;;;4954222;28;20839;-74
2022/04/13 11:55:20;;;;;;;6.40;3.00;;;;;;;;;;4954487;28;20424;-75
2022/04/13 11:57:59;;;;;;;6.07;2.70;;;;;;;;;;4954625;28;20408;-75
2022/04/13 12:00:37;;;;;;;3.97;2.40;;;;;;;;;;4956239;28;20915;-74
2022/04/13 12:03:06;;;;;;;6.67;2.10;;;;;;;;;;4958035;28;20526;-74
2022/04/13 12:05:33;;;;;;;6.70;3.00;;;;;;;;;;4958205;28;20416;-74
2022/04/13 12:07:59;;;;;;;6.67;2.70;;;;;;;;;;4972971;28;20936;-75
2022/04/13 12:10:25;;;;;;;10.30;2.50;;;;;;;;;;4957656;28;20792;-75
2022/04/13 12:12:55;;;;;;;8.50;2.00;;;;;;;;;;4957996;28;20453;-75
2022/04/13 12:15:23;;;;;;;4.17;1.80;;;;;;;;;;4957853;28;20968;-73
2022/04/13 12:17:49;;;;;;;10.57;2.53;;;;;;;;;;4957833;28;20421;-73
2022/04/13 12:20:28;;;;;;;9.77;2.53;;;;;;;;;;4972203;28;20440;-74
2022/04/13 12:22:54;;;;;;;5.43;2.10;;;;;;;;;;4957623;28;20527;-75
2022/04/13 12:25:20;;;;;;;5.23;2.30;;;;;;;;;;4957613;28;20405;-75
2022/04/13 12:28:05;;;;;;;3.10;1.93;;;;;;;;;;4957659;28;20456;-73
2022/04/13 12:30:31;;;;;;;4.30;1.37;;;;;;;;;;4957155;28;20413;-75
2022/04/13 12:32:57;;;;;;;8.50;2.70;;;;;;;;;;4957620;28;21012;-74
2022/04/13 12:35:23;;;;;;;4.77;2.30;;;;;;;;;;4957521;28;20425;-75
2022/04/13 12:37:53;;;;;;;6.20;2.10;;;;;;;;;;4957523;28;20413;-72
2022/04/13 12:40:23;;;;;;;8.03;2.17;;;;;;;;;;4957149;28;20416;-74
2022/04/13 12:42:49;;;;;;;5.10;1.70;;;;;;;;;;4957139;28;20468;-74
2022/04/13 12:45:15;;;;;;;5.63;2.47;;;;;;;;;;4957321;28;20922;-73
2022/04/13 12:47:45;;;;;;;5.23;2.60;;;;;;;;;;4972246;28;20435;-75
2022/04/13 12:50:11;;;;;;;6.20;3.60;;;;;;;;;;4971672;28;20425;-73
2022/04/13 12:52:37;;;;;;;3.77;2.63;;;;;;;;;;4956862;28;20945;-73
2022/04/13 12:55:04;;;;;;;8.47;3.77;;;;;;;;;;4971796;28;20441;-75
2022/04/13 12:57:30;;;;;;;7.13;4.43;;;;;;;;;;4971917;28;20965;-75
2022/04/13 12:59:56;;;;;;;7.20;4.90;;;;;;;;;;4957023;28;20924;-75
2022/04/13 13:02:22;;;;;;;6.87;4.30;;;;;;;;;;4956435;28;20447;-75
2022/04/13 13:04:48;;;;;;;10.33;5.23;;;;;;;;;;4956978;28;20537;-74
2022/04/13 13:07:15;;;;;;;9.37;4.37;;;;;;;;;;4956947;28;20417;-74
2022/04/13 13:09:43;;;;;;;11.13;6.00;;;;;;;;;;4956758;28;20390;-74
2022/04/13 13:12:13;;;;;;;7.07;5.70;;;;;;;;;;4955354;28;20436;-75
2022/04/13 13:14:40;;;;;;;14.37;5.93;;;;;;;;;;4956692;28;20417;-74
2022/04/13 13:17:24;;;;;;;16.73;6.30;;;;;;;;;;4956826;28;20417;-74
2022/04/13 13:19:50;;;;;;;14.43;6.90;;;;;;;;;;4956670;28;20460;-73
2022/04/13 13:22:24;;;;;;;11.90;6.43;;;;;;;;;;4956148;28;20403;-74
2022/04/13 13:25:03;;;;;;;10.00;5.80;;;;;;;;;;4970903;28;20421;-74
2022/04/13 13:27:30;;;;;;;9.27;6.20;;;;;;;;;;4956696;28;20792;-74
2022/04/13 13:29:58;;;;;;;12.10;6.77;;;;;;;;;;4956595;28;20431;-74
2022/04/13 13:32:26;;;;;;;11.03;5.90;;;;;;;;;;4955962;28;20448;-74
2022/04/13 13:34:56;;;;;;;12.00;6.37;;;;;;;;;;4956287;28;20894;-74
2022/04/13 13:37:28;;;;;;;8.90;5.67;;;;;;;;;;4956286;28;20424;-75
2022/04/13 13:39:54;;;;;;;8.17;6.30;;;;;;;;;;4971043;28;21004;-75
2022/04/13 13:42:20;;;;;;;11.73;6.67;;;;;;;;;;4955901;28;20441;-75
2022/04/13 13:44:46;;;;;;;9.87;6.03;;;;;;;;;;4955945;28;20928;-73
2022/04/13 13:47:12;;;;;;;9.67;6.20;;;;;;;;;;4955855;28;20472;-75
2022/04/13 13:49:38;;;;;;;9.00;5.80;;;;;;;;;;4970778;28;20466;-75
2022/04/13 13:52:04;;;;;;;14.40;5.83;;;;;;;;;;4955600;28;20441;-74
2022/04/13 13:54:33;;;;;;;13.70;5.33;;;;;;;;;;4955892;28;20830;-74
2022/04/13 13:57:01;;;;;;;8.23;4.83;;;;;;;;;;4955788;28;20954;-74
2022/04/13 13:59:27;;;;;;;10.63;4.17;;;;;;;;;;4970509;28;20417;-74
2022/04/13 14:01:53;;;;;;;8.53;4.40;;;;;;;;;;4955573;28;20520;-75
2022/04/13 14:04:18;;;;;;;14.87;4.13;;;;;;;;;;4955757;28;20464;-73
2022/04/13 14:06:45;;;;;;;8.70;4.63;;;;;;;;;;4956082;28;20420;-73
2022/04/13 14:09:11;;;;;;;10.87;5.47;;;;;;;;;;4970624;28;20414;-74
2022/04/13 14:11:37;;;;;;;10.73;5.50;;;;;;;;;;4955461;28;20512;-73
2022/04/13 14:14:03;;;;;;;10.27;5.07;;;;;;;;;;4955743;28;20448;-75
2022/04/13 14:16:30;;;;;;;7.73;4.37;;;;;;;;;;4955822;28;20471;-75
2022/04/13 14:18:56;;;;;;;6.73;4.80;;;;;;;;;;4955677;28;20389;-73
2022/04/13 14:21:22;;;;;;;18.37;5.50;;;;;;;;;;4955008;28;20824;-73
2022/04/13 14:23:48;;;;;;;8.50;4.63;;;;;;;;;;4955293;28;20460;-74
2022/04/13 14:26:14;;;;;;;8.47;4.17;;;;;;;;;;4955523;28;20889;-75
2022/04/13 14:28:40;;;;;;;12.53;4.63;;;;;;;;;;4970277;28;20421;-73
2022/04/13 14:31:06;;;;;;;9.43;4.30;;;;;;;;;;4969860;28;20452;-75
2022/04/13 14:33:32;;;;;;;8.57;4.50;;;;;;;;;;4955266;28;20564;-72
2022/04/13 14:35:58;;;;;;;7.67;4.63;;;;;;;;;;4955313;28;20504;-75
2022/04/13 14:38:24;;;;;;;10.40;4.73;;;;;;;;;;4970017;28;20461;-74
2022/04/13 14:40:50;;;;;;;6.57;4.30;;;;;;;;;;4954865;28;20468;-74